Time;durP1;ratioP1;P1;durP2;ratioP2;P2;SDS_P1;SDS_P2;PMS_P1;PMS_P2;Temp;Humidity;BMP_temperature;BMP_pressure;BME280_temperature;BME280_humidity;BME280_pressure;Samples;Min_cycle;Max_cycle;Signal;HPM_P1;HPM_P2
2022/12/10 00:00:36;;;;;;;32.97;24.60;;;13.10;91.50;;;;;;4588649;19;19999;-31
2022/12/10 00:02:23;;;;;;;28.07;22.17;;;13.10;91.50;;;;;;4589116;19;20034;-37
2022/12/10 00:03:54;;;;;;;29.67;22.88;;;13.00;91.40;;;;;;4588936;19;20014;-29
2022/12/10 00:05:25;;;;;;;27.92;22.20;;;13.10;91.50;;;;;;4589147;19;20022;-35
2022/12/10 00:06:57;;;;;;;27.90;21.20;;;13.00;91.50;;;;;;4589554;19;20485;-35
2022/12/10 00:08:29;;;;;;;27.93;21.67;;;13.00;91.50;;;;;;4589327;19;20007;-31
2022/12/10 00:10:00;;;;;;;26.65;20.58;;;13.00;91.50;;;;;;4588945;19;20494;-30
2022/12/10 00:11:32;;;;;;;24.13;18.55;;;13.00;91.50;;;;;;4590030;19;20519;-38
2022/12/10 00:13:03;;;;;;;23.73;18.80;;;13.10;91.50;;;;;;4593569;19;20062;-31
2022/12/10 00:14:34;;;;;;;25.83;18.90;;;13.00;91.40;;;;;;4593210;19;20015;-31
2022/12/10 00:16:07;;;;;;;27.73;20.50;;;13.10;91.50;;;;;;4593809;19;20428;-38
2022/12/10 00:17:40;;;;;;;26.57;21.90;;;13.10;91.50;;;;;;4592304;19;20025;-38
2022/12/10 00:19:12;;;;;;;28.90;22.60;;;13.10;91.50;;;;;;4593605;19;20460;-32
2022/12/10 00:20:44;;;;;;;31.83;23.97;;;13.00;91.50;;;;;;4593255;19;20025;-37
2022/12/10 00:22:17;;;;;;;31.40;24.00;;;13.00;91.60;;;;;;4593280;19;20019;-34
2022/12/10 00:23:48;;;;;;;;;;;13.00;91.60;;;;;;4594657;19;20433;-33
2022/12/10 00:25:20;;;;;;;31.50;24.58;;;13.10;91.60;;;;;;4593688;19;20333;-34
2022/12/10 00:26:51;;;;;;;36.08;25.48;;;13.10;91.60;;;;;;4593303;19;20012;-30
2022/12/10 00:28:23;;;;;;;33.03;25.20;;;13.10;91.60;;;;;;4593573;19;20480;-33
2022/12/10 00:29:54;;;;;;;33.03;24.67;;;13.00;91.60;;;;;;4593648;19;20429;-32
2022/12/10 00:31:31;;;;;;;31.70;23.25;;;13.00;91.50;;;;;;4593553;19;20007;-39
2022/12/10 05:11:44;;;;;;;30.83;23.77;;;12.80;91.80;;;;;;4591474;19;20369;-34
2022/12/10 05:13:15;;;;;;;28.30;22.40;;;12.80;91.80;;;;;;4593642;19;20538;-35
2022/12/10 05:14:46;;;;;;;30.77;24.60;;;12.80;91.90;;;;;;4595089;19;20847;-32
2022/12/10 05:16:20;;;;;;;29.63;23.20;;;12.80;91.90;;;;;;4592039;19;20021;-34
2022/12/10 05:17:52;;;;;;;29.30;23.97;;;12.80;91.90;;;;;;4592966;19;21017;-36
2022/12/10 05:19:25;;;;;;;29.55;23.10;;;12.80;91.90;;;;;;4592980;19;20441;-32
2022/12/10 05:21:01;;;;;;;28.40;22.67;;;12.80;91.90;;;;;;4591392;19;20007;-33
2022/12/10 05:24:21;;;;;;;28.67;23.60;;;12.80;91.80;;;;;;4592059;19;20799;-32
2022/12/10 05:26:03;;;;;;;26.05;21.52;;;12.80;91.80;;;;;;4592014;19;20496;-36
2022/12/10 05:27:35;;;;;;;30.50;23.33;;;12.80;91.70;;;;;;4592143;19;20038;-29
2022/12/10 05:29:07;;;;;;;28.83;22.57;;;12.80;91.70;;;;;;4591627;19;21065;-33
2022/12/10 05:30:39;;;;;;;27.43;22.37;;;12.80;91.70;;;;;;4590953;19;21040;-29
2022/12/10 05:32:11;;;;;;;30.85;23.52;;;12.80;91.60;;;;;;4590830;19;20480;-32
2022/12/10 05:33:42;;;;;;;27.67;21.60;;;12.80;91.70;;;;;;4591072;19;20013;-33
2022/12/10 05:35:13;;;;;;;27.25;21.65;;;12.80;91.70;;;;;;4588930;19;20383;-30
2022/12/10 05:36:44;;;;;;;29.65;22.38;;;12.80;91.70;;;;;;4589913;19;20014;-33
2022/12/10 05:38:17;;;;;;;29.30;22.97;;;12.80;91.70;;;;;;4592395;19;20089;-30
2022/12/10 05:39:49;;;;;;;30.53;23.73;;;12.80;91.80;;;;;;4592609;19;20493;-30
2022/12/10 05:41:22;;;;;;;31.63;23.88;;;12.80;91.70;;;;;;4591711;19;20481;-29
2022/12/10 05:42:53;;;;;;;29.07;22.87;;;12.80;91.70;;;;;;4590910;19;20010;-32
2022/12/10 05:44:24;;;;;;;31.15;23.80;;;12.80;91.70;;;;;;4591592;19;20489;-33
2022/12/10 05:46:00;;;;;;;29.55;24.17;;;12.80;91.70;;;;;;4590762;19;20011;-31
2022/12/10 05:47:32;;;;;;;26.70;21.87;;;12.80;91.70;;;;;;4590778;19;20464;-31
2022/12/10 05:49:03;;;;;;;30.85;24.38;;;12.70;91.60;;;;;;4589172;19;20475;-31
2022/12/10 05:50:35;;;;;;;28.10;22.80;;;12.70;91.60;;;;;;4589703;19;20480;-28
2022/12/10 05:52:06;;;;;;;28.00;22.75;;;12.80;91.70;;;;;;4589149;19;20455;-34
2022/12/10 05:53:37;;;;;;;29.63;22.63;;;12.80;91.80;;;;;;4589717;19;20018;-29
2022/12/10 05:55:09;;;;;;;27.83;21.80;;;12.80;92.00;;;;;;4590415;19;20051;-34
2022/12/10 05:56:39;;;;;;;29.13;23.42;;;12.80;91.70;;;;;;4592046;19;20038;-29
2022/12/10 05:58:10;;;;;;;30.55;22.90;;;12.70;91.70;;;;;;4591909;19;20003;-28
2022/12/10 05:59:43;;;;;;;28.73;23.03;;;12.70;91.90;;;;;;4591592;19;20027;-29
2022/12/10 06:01:19;;;;;;;30.50;23.17;;;12.70;91.80;;;;;;4591105;19;20822;-29
2022/12/10 06:02:50;;;;;;;29.30;24.33;;;12.70;91.90;;;;;;4591020;19;20010;-30
2022/12/10 06:04:21;;;;;;;30.52;23.10;;;12.70;91.90;;;;;;4590604;19;20880;-29
2022/12/10 06:05:53;;;;;;;;;;;12.70;91.90;;;;;;4591199;19;20471;-28
2022/12/10 06:07:25;;;;;;;28.60;22.77;;;12.70;91.90;;;;;;4589886;19;19914;-30
2022/12/10 06:08:56;;;;;;;27.33;21.40;;;12.80;91.90;;;;;;4591711;19;20457;-30
2022/12/10 06:10:29;;;;;;;27.10;22.13;;;12.80;91.80;;;;;;4592000;19;20480;-32
2022/12/10 07:20:41;;;;;;;21.80;17.57;;;12.80;91.70;;;;;;4588245;19;20525;-30
2022/12/10 07:22:13;;;;;;;22.40;17.50;;;12.80;91.70;;;;;;4594590;19;20022;-29
2022/12/10 07:23:44;;;;;;;22.30;18.27;;;12.80;91.70;;;;;;4593143;19;20487;-31
2022/12/10 07:25:15;;;;;;;22.00;17.30;;;12.80;91.70;;;;;;4593189;19;20014;-29
2022/12/10 07:26:46;;;;;;;21.38;18.08;;;12.80;91.70;;;;;;4593757;19;20029;-31
2022/12/10 07:28:19;;;;;;;20.90;17.23;;;12.80;91.70;;;;;;4594653;19;20045;-31
2022/12/10 07:29:51;;;;;;;19.93;16.67;;;12.70;91.80;;;;;;4593744;19;20592;-28
2022/12/10 07:31:22;;;;;;;;;;;12.80;91.70;;;;;;4594533;19;20453;-28
2022/12/10 07:32:53;;;;;;;30.30;26.97;;;12.80;91.70;;;;;;4593777;19;19936;-30
2022/12/10 07:34:27;;;;;;;21.67;18.77;;;12.80;91.70;;;;;;4594315;19;20006;-28
2022/12/10 07:35:58;;;;;;;22.50;17.60;;;12.80;91.50;;;;;;4593278;19;20489;-29
2022/12/10 07:37:30;;;;;;;22.33;17.67;;;12.80;91.50;;;;;;4593165;19;20019;-28
2022/12/10 07:39:01;;;;;;;22.40;17.38;;;13.00;91.40;;;;;;4594322;19;20436;-27
2022/12/10 07:40:32;;;;;;;20.00;16.95;;;13.10;91.40;;;;;;4594057;19;20007;-29
2022/12/10 07:42:06;;;;;;;20.13;16.63;;;13.20;91.30;;;;;;4594225;19;20011;-27
2022/12/10 07:43:41;;;;;;;19.73;17.40;;;13.20;91.30;;;;;;4591652;19;20027;-28
2022/12/10 07:45:12;;;;;;;21.43;17.70;;;13.30;91.30;;;;;;4594254;19;20429;-30
2022/12/10 07:46:44;;;;;;;20.77;16.40;;;13.30;91.20;;;;;;4594339;19;20524;-28
2022/12/10 07:48:15;;;;;;;20.55;17.08;;;13.40;91.20;;;;;;4594292;19;20014;-28
2022/12/10 07:49:47;;;;;;;21.30;15.97;;;13.40;91.10;;;;;;4594456;19;20479;-35
2022/12/10 07:51:20;;;;;;;20.92;16.33;;;13.50;91.00;;;;;;4594202;19;20031;-31
2022/12/10 07:52:51;;;;;;;21.70;16.63;;;13.50;91.00;;;;;;4593811;19;20341;-36
2022/12/10 07:54:22;;;;;;;22.75;18.10;;;13.50;91.00;;;;;;4593940;19;20021;-28
2022/12/10 07:55:53;;;;;;;19.13;16.23;;;13.50;91.00;;;;;;4594463;19;20066;-29
2022/12/10 07:57:24;;;;;;;21.58;17.20;;;13.50;91.00;;;;;;4593218;19;20003;-28
2022/12/10 07:58:55;;;;;;;24.15;20.88;;;13.50;91.00;;;;;;4593853;19;20099;-31
2022/12/10 08:00:27;;;;;;;29.30;24.20;;;12.10;91.30;;;;;;4594056;19;20357;-28
2022/12/10 08:01:59;;;;;;;30.23;25.13;;;10.30;93.40;;;;;;4593507;19;20033;-27
2022/12/10 08:03:30;;;;;;;36.20;27.25;;;9.40;94.80;;;;;;4592934;19;20484;-29
2022/12/10 08:05:03;;;;;;;40.47;30.63;;;8.90;95.80;;;;;;4591825;19;20014;-29
2022/12/10 08:06:34;;;;;;;29.75;22.80;;;8.70;96.10;;;;;;4593524;19;20453;-28
2022/12/10 08:08:06;;;;;;;26.98;20.73;;;8.50;96.30;;;;;;4594741;19;20022;-29
2022/12/10 08:09:37;;;;;;;25.98;19.85;;;8.40;96.60;;;;;;4595899;19;20021;-29
2022/12/10 08:11:09;;;;;;;30.58;24.67;;;8.40;96.60;;;;;;4595082;19;20476;-28
2022/12/10 08:12:43;;;;;;;32.33;23.93;;;8.30;96.80;;;;;;4594320;19;20015;-30
2022/12/10 08:14:15;;;;;;;27.50;20.83;;;8.20;96.70;;;;;;4593878;19;20973;-28
2022/12/10 08:15:48;;;;;;;26.87;20.43;;;8.20;96.60;;;;;;4595911;19;20441;-28
2022/12/10 08:17:19;;;;;;;28.10;21.60;;;8.20;96.70;;;;;;4592144;19;20472;-28
2022/12/10 08:18:51;;;;;;;29.07;21.77;;;8.10;96.70;;;;;;4593863;19;20006;-27
2022/12/10 08:31:58;;;;;;;29.40;21.83;;;8.00;96.90;;;;;;4591553;19;20472;-28
2022/12/10 08:33:29;;;;;;;27.95;20.35;;;7.90;96.90;;;;;;4592496;19;20503;-28
2022/12/10 08:35:00;;;;;;;26.17;19.43;;;7.90;97.30;;;;;;4594147;19;20019;-28
2022/12/10 08:36:31;;;;;;;28.77;21.73;;;7.90;97.20;;;;;;4595167;19;20568;-27
2022/12/10 08:38:04;;;;;;;30.57;20.70;;;7.90;97.10;;;;;;4595677;19;20492;-28
2022/12/10 08:39:35;;;;;;;27.95;21.38;;;7.90;97.20;;;;;;4595126;19;20547;-30
2022/12/10 08:41:18;;;;;;;30.08;20.73;;;7.90;97.20;;;;;;4594390;19;20039;-28
2022/12/10 08:42:51;;;;;;;30.90;22.60;;;7.80;97.30;;;;;;4593843;19;20362;-27
2022/12/10 08:44:22;;;;;;;31.10;22.60;;;7.90;97.30;;;;;;4593691;19;20457;-29
2022/12/10 08:45:55;;;;;;;30.70;22.53;;;7.80;97.10;;;;;;4594043;19;20514;-27
2022/12/10 08:47:27;;;;;;;31.97;23.13;;;7.80;97.30;;;;;;4593668;19;20478;-29
2022/12/10 08:48:58;;;;;;;35.15;24.35;;;7.80;97.20;;;;;;4594229;19;20452;-28
2022/12/10 08:50:29;;;;;;;31.20;22.20;;;7.80;97.00;;;;;;4592399;19;20030;-27
2022/12/10 08:52:00;;;;;;;31.20;22.05;;;7.80;96.80;;;;;;4595217;19;20370;-28
2022/12/10 08:53:32;;;;;;;32.38;23.08;;;7.80;96.90;;;;;;4594547;19;20017;-29
2022/12/10 08:55:03;;;;;;;30.98;21.45;;;7.80;97.00;;;;;;4593655;19;20010;-28
2022/12/10 08:56:35;;;;;;;29.48;21.50;;;7.80;97.00;;;;;;4591869;19;20014;-31
2022/12/10 08:58:06;;;;;;;32.30;22.92;;;7.80;96.90;;;;;;4592067;19;20011;-29
2022/12/10 08:59:37;;;;;;;29.95;21.38;;;7.80;97.10;;;;;;4593678;19;20010;-29
2022/12/10 09:01:10;;;;;;;30.20;22.55;;;7.80;97.10;;;;;;4594439;19;20490;-29
2022/12/10 09:02:41;;;;;;;30.93;22.67;;;7.80;97.20;;;;;;4591993;19;20021;-28
2022/12/10 09:04:15;;;;;;;30.00;21.17;;;7.80;97.40;;;;;;4593598;19;20816;-27
2022/12/10 09:05:48;;;;;;;30.33;21.70;;;7.80;97.40;;;;;;4593241;19;20010;-28
2022/12/10 09:07:20;;;;;;;31.57;24.67;;;7.80;97.40;;;;;;4591979;19;20479;-28
2022/12/10 09:08:52;;;;;;;28.83;21.10;;;7.80;97.20;;;;;;4592987;19;20481;-28
2022/12/10 09:10:23;;;;;;;27.13;20.33;;;7.80;97.00;;;;;;4594926;19;20333;-27
2022/12/10 09:11:55;;;;;;;;;;;7.70;97.00;;;;;;4593787;19;20448;-28
2022/12/10 09:13:28;;;;;;;28.33;20.03;;;7.70;97.10;;;;;;4594826;19;20242;-27
2022/12/10 09:14:59;;;;;;;29.42;21.65;;;7.70;97.00;;;;;;4593005;19;20804;-28
2022/12/10 09:16:35;;;;;;;28.90;21.00;;;7.70;97.20;;;;;;4594519;19;20015;-28
2022/12/10 09:18:06;;;;;;;37.07;25.07;;;7.70;97.40;;;;;;4593832;19;20504;-27
2022/12/10 09:19:37;;;;;;;29.60;22.33;;;7.70;97.40;;;;;;4594350;19;20452;-32
2022/12/10 16:00:23;;;;;;;34.27;23.73;;;10.80;94.30;;;;;;4591636;19;20500;-30
2022/12/10 16:01:55;;;;;;;31.63;23.20;;;10.90;94.20;;;;;;4593763;19;20551;-29
2022/12/10 16:03:27;;;;;;;33.53;25.23;;;10.90;94.10;;;;;;4593309;19;20480;-27
2022/12/10 16:04:58;;;;;;;34.43;24.57;;;11.00;94.00;;;;;;4592599;19;20378;-28
2022/12/10 16:06:29;;;;;;;34.70;25.95;;;11.10;94.00;;;;;;4592445;19;20512;-28
2022/12/10 16:08:17;;;;;;;36.63;28.20;;;11.10;93.90;;;;;;4594614;19;20023;-28
2022/12/10 16:09:49;;;;;;;33.10;24.77;;;11.10;93.80;;;;;;4592618;19;20459;-28
2022/12/10 16:11:22;;;;;;;36.70;27.13;;;11.20;93.70;;;;;;4593023;19;20413;-28
2022/12/10 16:13:01;;;;;;;35.83;27.35;;;11.20;93.70;;;;;;4593437;19;20436;-28
2022/12/10 16:14:33;;;;;;;34.50;25.27;;;11.20;93.70;;;;;;4594061;19;20014;-29
2022/12/10 16:16:06;;;;;;;34.83;25.47;;;11.30;93.70;;;;;;4593514;19;20488;-28
2022/12/10 16:17:38;;;;;;;37.17;25.67;;;11.40;93.70;;;;;;4592541;19;20532;-28
2022/12/10 16:19:11;;;;;;;37.05;26.30;;;11.40;93.60;;;;;;4596081;19;20449;-30
2022/12/10 16:20:43;;;;;;;34.23;25.63;;;11.40;93.60;;;;;;4593514;19;20014;-29
2022/12/10 16:22:14;;;;;;;36.17;27.53;;;11.40;93.50;;;;;;4593636;19;20437;-28
2022/12/10 16:23:48;;;;;;;36.22;26.73;;;11.50;93.40;;;;;;4593097;19;20437;-29
2022/12/10 16:25:21;;;;;;;36.70;26.13;;;11.50;93.40;;;;;;4593188;19;20070;-28
2022/12/10 16:26:54;;;;;;;34.57;25.73;;;11.50;93.30;;;;;;4593624;19;21047;-29
2022/12/10 16:28:26;;;;;;;35.87;26.10;;;11.60;93.30;;;;;;4593311;19;20413;-28
2022/12/10 16:30:00;;;;;;;33.10;26.37;;;11.60;93.20;;;;;;4593530;19;20436;-29
2022/12/10 16:31:32;;;;;;;34.37;25.80;;;11.60;93.20;;;;;;4593126;19;20536;-29
2022/12/10 16:33:03;;;;;;;34.90;25.58;;;11.60;93.20;;;;;;4593517;19;20441;-28
2022/12/10 16:34:35;;;;;;;34.90;25.50;;;11.60;93.10;;;;;;4593358;19;20333;-27
2022/12/10 16:36:06;;;;;;;33.63;23.95;;;11.70;93.10;;;;;;4592911;19;20007;-29
2022/12/10 16:37:38;;;;;;;;;;;11.70;93.00;;;;;;4593721;19;20022;-28
2022/12/10 16:39:09;;;;;;;33.77;23.60;;;11.70;93.00;;;;;;4593169;19;19923;-28
2022/12/10 16:40:41;;;;;;;33.27;24.00;;;11.70;92.90;;;;;;4593300;19;20003;-30
2022/12/10 16:42:12;;;;;;;32.67;24.20;;;11.70;92.90;;;;;;4592969;19;20460;-32
2022/12/10 16:43:43;;;;;;;33.10;24.52;;;11.70;92.90;;;;;;4591795;19;20502;-35
2022/12/10 16:45:20;;;;;;;30.92;22.55;;;11.80;92.90;;;;;;4594938;19;20042;-34
2022/12/10 16:46:51;;;;;;;32.17;23.70;;;11.80;92.90;;;;;;4594815;19;20023;-34
2022/12/10 16:48:22;;;;;;;28.90;21.90;;;11.80;92.80;;;;;;4590643;19;20577;-37
2022/12/10 16:49:54;;;;;;;30.20;22.60;;;11.80;92.90;;;;;;4591807;19;20066;-28
2022/12/10 16:51:28;;;;;;;29.73;22.30;;;11.80;92.80;;;;;;4593546;19;20027;-36
2022/12/10 16:53:15;;;;;;;30.77;23.17;;;11.80;92.70;;;;;;4592731;19;20455;-34
2022/12/10 16:54:48;;;;;;;29.73;22.90;;;11.80;92.60;;;;;;4592373;19;20373;-29
2022/12/10 16:56:19;;;;;;;31.90;23.27;;;11.90;92.70;;;;;;4591376;19;20467;-33
2022/12/10 16:57:50;;;;;;;29.02;22.73;;;11.90;92.70;;;;;;4591134;19;20469;-30
2022/12/10 16:59:22;;;;;;;32.83;23.65;;;11.90;92.70;;;;;;4591601;19;20025;-36
2022/12/10 17:06:11;;;;;;;32.23;23.83;;;11.90;92.60;;;;;;4592528;19;20417;-30
2022/12/10 17:07:42;;;;;;;31.93;23.23;;;12.00;92.60;;;;;;4591882;19;20432;-29
2022/12/10 17:09:15;;;;;;;31.03;23.97;;;12.00;92.50;;;;;;4591948;19;20472;-34
2022/12/10 17:12:37;;;;;;;34.97;27.43;;;11.90;92.40;;;;;;4592514;19;20485;-33
2022/12/10 17:14:21;;;;;;;33.05;25.98;;;11.90;92.30;;;;;;4591520;19;20766;-34
2022/12/10 17:15:54;;;;;;;35.10;27.23;;;11.90;92.30;;;;;;4591411;19;20014;-31
2022/12/10 17:17:26;;;;;;;33.23;24.10;;;12.00;92.30;;;;;;4590693;19;20470;-33
2022/12/10 17:18:58;;;;;;;34.17;25.40;;;12.00;92.20;;;;;;4591050;19;20449;-32
2022/12/10 17:20:30;;;;;;;33.00;23.63;;;12.00;92.20;;;;;;4591441;19;20425;-34
2022/12/10 17:22:02;;;;;;;33.95;25.10;;;12.00;92.00;;;;;;4591604;19;20449;-32
2022/12/10 17:23:34;;;;;;;30.07;23.93;;;12.10;92.00;;;;;;4590955;19;20023;-36
2022/12/10 17:25:06;;;;;;;33.57;24.13;;;12.10;91.90;;;;;;4591527;19;20479;-36
2022/12/10 17:26:39;;;;;;;33.22;24.35;;;12.10;91.80;;;;;;4590667;19;20441;-30
2022/12/10 17:28:13;;;;;;;35.53;25.53;;;12.20;91.90;;;;;;4592486;19;20046;-35
2022/12/10 17:29:54;;;;;;;31.13;24.03;;;12.20;91.80;;;;;;4590993;19;20510;-34
2022/12/10 17:31:25;;;;;;;32.03;24.10;;;12.20;91.90;;;;;;4590649;19;20772;-29
2022/12/10 17:32:56;;;;;;;33.67;24.55;;;12.20;91.90;;;;;;4589579;19;20867;-30
2022/12/10 17:34:29;;;;;;;38.63;27.60;;;12.20;91.90;;;;;;4592484;19;20010;-29
2022/12/10 17:36:01;;;;;;;33.77;26.07;;;12.20;91.90;;;;;;4591683;19;20461;-30
2022/12/10 17:37:33;;;;;;;33.43;24.40;;;12.20;91.90;;;;;;4591156;19;20502;-30
2022/12/10 17:39:04;;;;;;;36.45;26.88;;;12.20;91.80;;;;;;4590690;19;20449;-29
2022/12/10 17:40:35;;;;;;;35.78;26.13;;;12.20;91.80;;;;;;4591112;19;20014;-30
2022/12/10 17:42:08;;;;;;;37.33;25.30;;;12.30;91.80;;;;;;4590179;19;20018;-32
2022/12/10 17:43:39;;;;;;;36.60;26.27;;;12.30;91.80;;;;;;4589147;19;20018;-32
2022/12/10 17:45:15;;;;;;;38.65;27.42;;;12.30;91.90;;;;;;4589918;19;20429;-30
2022/12/10 18:08:14;;;;;;;31.07;23.47;;;12.30;91.70;;;;;;4585317;19;20457;-34
2022/12/10 18:10:00;;;;;;;29.57;22.73;;;12.30;91.60;;;;;;4590987;19;20487;-32
2022/12/10 18:11:32;;;;;;;31.98;23.30;;;12.30;91.50;;;;;;4591236;19;20465;-34
2022/12/10 18:13:04;;;;;;;28.73;22.97;;;12.30;91.50;;;;;;4590635;19;20034;-31
2022/12/10 18:14:35;;;;;;;32.17;23.15;;;12.30;91.40;;;;;;4589188;19;20548;-32
2022/12/10 18:16:14;;;;;;;32.37;22.80;;;12.30;91.40;;;;;;4588976;19;20026;-30
2022/12/10 18:17:46;;;;;;;33.33;24.60;;;12.30;91.40;;;;;;4589807;19;20457;-29
2022/12/10 18:19:17;;;;;;;36.50;26.85;;;12.30;91.40;;;;;;4588609;19;20457;-31
2022/12/10 18:20:48;;;;;;;36.38;26.02;;;12.30;91.40;;;;;;4590111;19;20379;-30
2022/12/10 18:22:20;;;;;;;34.55;24.27;;;12.30;91.40;;;;;;4590623;19;20402;-33
2022/12/10 18:23:51;;;;;;;34.13;23.85;;;12.30;91.40;;;;;;4589283;19;20469;-28
2022/12/10 18:25:23;;;;;;;31.50;22.48;;;12.30;91.40;;;;;;4590080;19;20018;-29
2022/12/10 18:26:54;;;;;;;33.53;25.45;;;12.30;91.30;;;;;;4591045;19;20010;-31
2022/12/10 18:28:28;;;;;;;32.08;23.67;;;12.30;91.40;;;;;;4589806;19;20039;-29
2022/12/10 18:29:59;;;;;;;33.40;23.90;;;12.30;91.30;;;;;;4589943;19;20014;-29
2022/12/10 18:31:32;;;;;;;29.30;21.73;;;12.30;91.30;;;;;;4589981;19;20488;-32
2022/12/10 18:33:04;;;;;;;30.17;22.27;;;12.30;91.30;;;;;;4590075;19;20018;-36
2022/12/10 18:34:37;;;;;;;30.77;21.33;;;12.30;91.20;;;;;;4588059;19;20507;-32
2022/12/10 18:36:21;;;;;;;27.27;19.77;;;12.30;91.40;;;;;;4588308;19;20542;-30
2022/12/10 18:37:54;;;;;;;27.23;19.27;;;12.30;91.00;;;;;;4590697;19;20840;-35
2022/12/10 18:39:33;;;;;;;24.83;18.65;;;12.40;90.80;;;;;;4590509;19;20449;-29
2022/12/10 18:41:07;;;;;;;22.10;16.97;;;12.40;90.60;;;;;;4589302;19;20018;-32
2022/12/10 18:42:41;;;;;;;20.70;16.53;;;12.40;90.60;;;;;;4587032;19;20441;-28
2022/12/10 18:44:16;;;;;;;21.63;17.33;;;12.40;90.40;;;;;;4586178;19;20472;-28
2022/12/10 18:45:47;;;;;;;22.73;17.97;;;12.50;90.20;;;;;;4589977;19;20502;-30
2022/12/10 18:47:19;;;;;;;22.45;16.85;;;12.50;90.20;;;;;;4590469;19;20469;-28
2022/12/10 18:48:54;;;;;;;23.53;16.83;;;12.50;90.10;;;;;;4591461;19;20006;-35
2022/12/10 18:50:28;;;;;;;21.60;17.37;;;12.60;90.00;;;;;;4589817;19;20901;-30
2022/12/10 18:52:00;;;;;;;23.97;18.33;;;12.60;89.60;;;;;;4590228;19;20538;-31
2022/12/10 18:53:33;;;;;;;26.87;21.30;;;12.60;89.50;;;;;;4589086;19;20580;-28
2022/12/10 18:55:04;;;;;;;;;;;12.60;89.30;;;;;;4590228;19;20819;-27
2022/12/10 18:56:36;;;;;;;28.40;22.30;;;12.60;89.10;;;;;;4586793;19;19994;-28
2022/12/10 18:58:09;;;;;;;31.07;23.33;;;12.70;89.10;;;;;;4587425;19;20025;-31
2022/12/10 18:59:41;;;;;;;29.47;22.30;;;12.70;88.90;;;;;;4588568;19;20473;-33
2022/12/10 19:01:13;;;;;;;26.73;20.70;;;12.80;88.70;;;;;;4586768;19;20495;-29
2022/12/10 19:05:02;;;;;;;24.97;19.77;;;12.80;88.50;;;;;;4608790;19;21508;-27
2022/12/10 19:06:34;;;;;;;;;;;12.80;89.00;;;;;;4614461;19;20014;-28
2022/12/10 19:08:05;;;;;;;23.40;18.63;;;12.80;88.90;;;;;;4614690;19;20236;-30
2022/12/10 19:09:39;;;;;;;25.77;19.97;;;12.80;89.10;;;;;;4612688;19;20074;-29
2022/12/10 19:11:12;;;;;;;28.07;22.00;;;12.90;89.10;;;;;;4612809;19;20456;-35
2022/12/10 19:12:44;;;;;;;24.80;19.13;;;12.90;89.10;;;;;;4613473;19;20020;-37
2022/12/10 19:14:15;;;;;;;25.63;19.20;;;12.90;89.00;;;;;;4612867;19;20725;-36
2022/12/10 19:15:47;;;;;;;23.98;18.90;;;12.90;89.10;;;;;;4614818;19;20018;-34
2022/12/10 19:17:18;;;;;;;26.77;21.27;;;12.90;88.70;;;;;;4612075;19;20389;-30
2022/12/10 19:18:51;;;;;;;25.50;19.90;;;12.90;88.70;;;;;;4613039;19;20030;-35
2022/12/10 19:20:23;;;;;;;25.97;19.83;;;12.90;88.60;;;;;;4613854;19;20495;-37
2022/12/10 19:21:54;;;;;;;;;;;12.90;88.70;;;;;;4612890;19;20356;-34
2022/12/10 19:23:26;;;;;;;24.20;18.03;;;12.90;88.70;;;;;;4612850;19;19992;-33
2022/12/10 19:24:58;;;;;;;;;;;12.90;88.80;;;;;;4612990;19;20835;-29
2022/12/10 19:26:35;;;;;;;27.40;20.30;;;12.90;88.80;;;;;;4613304;19;19915;-29
2022/12/10 19:28:06;;;;;;;25.60;19.07;;;12.80;88.80;;;;;;4611809;19;20453;-27
2022/12/10 19:29:40;;;;;;;23.63;17.63;;;12.80;88.70;;;;;;4611808;19;22469;-29
2022/12/10 19:31:12;;;;;;;23.70;19.00;;;12.80;88.70;;;;;;4613257;19;20010;-36
2022/12/10 19:32:43;;;;;;;26.97;20.23;;;12.70;88.70;;;;;;4612970;19;20034;-34
2022/12/10 19:34:15;;;;;;;27.13;19.80;;;12.80;88.70;;;;;;4612315;19;21122;-36
2022/12/10 19:35:46;;;;;;;25.87;20.57;;;12.80;88.90;;;;;;4611823;19;20047;-30
2022/12/10 19:37:19;;;;;;;28.20;20.93;;;12.70;88.80;;;;;;4613419;19;20010;-40
2022/12/10 19:38:51;;;;;;;27.48;20.45;;;12.80;88.90;;;;;;4610573;19;20425;-33
2022/12/10 19:40:23;;;;;;;24.33;19.43;;;12.70;89.10;;;;;;4612660;19;20021;-28
2022/12/10 19:41:55;;;;;;;25.90;19.67;;;12.70;89.10;;;;;;4613333;19;21104;-31
2022/12/10 19:43:28;;;;;;;25.13;19.57;;;12.70;89.20;;;;;;4605400;19;20010;-31
2022/12/10 19:45:03;;;;;;;25.95;20.05;;;12.70;89.30;;;;;;4609942;19;20917;-31
2022/12/10 19:46:34;;;;;;;28.30;20.43;;;12.70;89.30;;;;;;4610519;19;20375;-29
2022/12/10 19:48:06;;;;;;;25.17;19.42;;;12.70;89.30;;;;;;4611541;19;20464;-28
2022/12/10 19:49:38;;;;;;;26.10;19.10;;;12.60;89.30;;;;;;4612747;19;20006;-29
2022/12/10 19:51:09;;;;;;;24.05;18.27;;;12.60;89.20;;;;;;4610882;19;20522;-31
2022/12/10 19:52:43;;;;;;;22.73;17.77;;;12.60;89.00;;;;;;4610069;19;20073;-31
2022/12/10 19:54:14;;;;;;;23.60;18.13;;;12.60;88.90;;;;;;4612129;19;20453;-28
2022/12/10 19:55:45;;;;;;;22.02;17.88;;;12.60;88.80;;;;;;4610023;19;20456;-34
2022/12/10 19:57:18;;;;;;;22.20;17.13;;;12.60;88.90;;;;;;4611705;19;20021;-33
2022/12/10 19:58:49;;;;;;;22.63;17.70;;;12.60;88.90;;;;;;4611402;19;20014;-35
2022/12/10 20:00:23;;;;;;;21.23;17.03;;;12.60;88.90;;;;;;4609672;19;20057;-31
2022/12/10 20:01:55;;;;;;;21.87;17.03;;;12.60;88.90;;;;;;4610476;19;20452;-30
2022/12/10 20:03:26;;;;;;;22.02;16.38;;;12.60;88.60;;;;;;4607753;19;20081;-34
2022/12/10 20:04:57;;;;;;;20.98;16.60;;;12.50;88.60;;;;;;4607534;19;20410;-28
2022/12/10 20:06:32;;;;;;;21.67;16.75;;;12.50;88.40;;;;;;4611514;19;20351;-30
2022/12/10 20:08:05;;;;;;;22.70;16.47;;;12.50;88.20;;;;;;4609818;19;20018;-32
2022/12/10 20:09:37;;;;;;;21.63;16.23;;;12.60;88.10;;;;;;4610601;19;20503;-28
2022/12/10 20:12:55;;;;;;;21.33;16.97;;;12.50;88.00;;;;;;4607616;19;21057;-32
2022/12/10 20:14:26;;;;;;;21.47;15.73;;;12.50;87.90;;;;;;4605516;19;20507;-34
2022/12/10 20:15:59;;;;;;;23.23;17.40;;;12.50;87.70;;;;;;4590962;19;20498;-28
2022/12/10 20:17:31;;;;;;;19.63;15.13;;;12.50;87.90;;;;;;4590870;19;20480;-33
2022/12/10 20:19:02;;;;;;;20.52;15.70;;;12.50;87.80;;;;;;4592289;19;20580;-31
2022/12/10 20:20:35;;;;;;;19.73;15.30;;;12.50;87.90;;;;;;4593116;19;20026;-35
2022/12/10 20:22:07;;;;;;;18.67;15.33;;;12.50;87.70;;;;;;4593473;19;20460;-30
2022/12/10 20:23:38;;;;;;;25.65;18.25;;;12.50;87.70;;;;;;4592766;19;20509;-29
2022/12/10 20:25:09;;;;;;;39.33;25.38;;;12.50;87.50;;;;;;4590779;19;20082;-29
2022/12/10 20:26:43;;;;;;;24.42;17.42;;;12.60;87.60;;;;;;4592083;19;20018;-33
2022/12/10 20:28:16;;;;;;;17.93;15.27;;;12.50;87.60;;;;;;4591334;19;20021;-31
2022/12/10 20:29:47;;;;;;;19.67;14.33;;;12.60;87.50;;;;;;4592495;19;21023;-29
2022/12/10 20:31:18;;;;;;;18.15;13.82;;;12.50;87.40;;;;;;4591059;19;20453;-32
2022/12/10 20:32:50;;;;;;;18.65;15.20;;;12.50;87.30;;;;;;4591088;19;20014;-29
2022/12/10 20:34:22;;;;;;;18.58;15.48;;;12.50;87.10;;;;;;4591515;19;20086;-31
2022/12/10 20:35:54;;;;;;;18.17;14.53;;;12.50;87.30;;;;;;4592729;19;20077;-28
2022/12/10 20:37:25;;;;;;;17.48;13.77;;;12.50;87.40;;;;;;4592350;19;20461;-29
2022/12/10 20:38:56;;;;;;;18.02;14.15;;;12.50;87.20;;;;;;4592694;19;20029;-29
2022/12/10 20:40:27;;;;;;;19.25;16.02;;;12.50;87.20;;;;;;4592380;19;20011;-29
2022/12/10 20:42:01;;;;;;;20.30;15.87;;;12.50;87.20;;;;;;4592788;19;20570;-33
2022/12/10 20:43:32;;;;;;;19.92;15.13;;;12.50;87.30;;;;;;4591972;19;20814;-31
2022/12/10 20:45:03;;;;;;;16.30;14.18;;;12.50;87.40;;;;;;4592461;19;20031;-34
2022/12/10 20:46:36;;;;;;;17.47;14.37;;;12.50;87.20;;;;;;4592018;19;20021;-31
2022/12/10 20:48:09;;;;;;;17.13;13.57;;;12.50;87.10;;;;;;4590596;19;21036;-35
2022/12/10 20:49:40;;;;;;;17.70;14.20;;;12.50;86.90;;;;;;4591442;19;20592;-34
2022/12/10 20:51:11;;;;;;;16.92;13.98;;;12.50;86.90;;;;;;4593425;19;20460;-33
2022/12/10 20:52:43;;;;;;;18.05;14.30;;;12.50;86.80;;;;;;4592961;19;20026;-33
2022/12/10 20:54:14;;;;;;;17.30;14.48;;;12.50;86.90;;;;;;4593013;19;20021;-32
2022/12/10 20:55:46;;;;;;;18.10;14.43;;;12.50;86.90;;;;;;4590910;19;20022;-30
2022/12/10 20:57:18;;;;;;;50.73;31.60;;;12.50;86.90;;;;;;4591324;19;20035;-34
2022/12/10 20:58:49;;;;;;;59.60;38.08;;;12.50;86.90;;;;;;4591509;19;20461;-35
2022/12/10 21:00:22;;;;;;;41.47;28.10;;;12.50;87.00;;;;;;4589945;19;20475;-36
2022/12/10 21:01:54;;;;;;;25.70;16.90;;;12.60;87.30;;;;;;4590063;19;20022;-33
2022/12/10 21:03:26;;;;;;;;;;;12.50;87.30;;;;;;4589401;19;20510;-33